Darlington, New Jersey
Current Conditions -  °F | °C
As of 10:51 PM on Friday 24 Oct 2014 (Local Time) from KTEB Reporting Station
Clear Clear  
Wind Chill: 57°   Ceiling: Unl
Heat Index: 57°   Visibility: 10mi
Dew Point: 39°   Wind: 6mph
Humidity: 51%   Direction: 320°NW
Pressure: 29.83"   Gusts: NA
Location:  41.0594°N, 74.1457°W
Report Text: KTEB 250251Z 32005KT 10SM CLR 14/04 A2983 RMK AO2 SLP102 T01390039 53012
Loading
Personal Weather Stations






























Interactive Weather Map
Tropical Storm Tracking
New forecast layout! Learn more

10-Day Weather Forecast

Advertisements
Track Severe Weather on mobile